Kennesaw, GA (30156)

8:44 PM EDT on May 05, 2015 (GMT -0400)
Stilesboro Crossing | | Change Station
CLOSE
Current Station
Personal Weather Station
Location: Kennesaw, GA
Elevation: 1056 ft
Nearby Weather Stations

Elev 1056 ft 34.01 °N, 84.63 °W | Updated 7 minutes ago

Scattered Clouds
Scattered Clouds
72.1 °F
Feels Like 77 °F
N
0.0
Wind Variable Wind from NE

Today
High -- | Low -- °F
--% Chance of Precip.
Yesterday
High -- | Low -- °F
Precip. -- in
6:45 AM 8:25 PM
Waning Gibbous, 96% visible
Pressure 30.21 in
Visibility 10.0 miles
Clouds Scattered Clouds 7000 ft
Heat Index 77 °F
Dew Point 50 °F
Humidity 45%
Rainfall 0.00 in
Snow Depth Not available.
UV 1 out of 12
Pollen 7.90 out of 12
Air Quality Not available.
Flu Activity Sporadic
METAR KRYY 052247Z 11008G15KT 10SM SCT070 27/10 A3021

More Conditions Fewer Conditions

Pressure 30.21 in
Visibility 10.0 miles
Clouds Scattered Clouds 7000 ft
Heat Index 77 °F
Dew Point 50 °F
Humidity 45%
Rainfall 0.00 in
Snow Depth Not available.
UV 1 out of 12
Pollen 7.90 out of 12
Air Quality Not available.
Flu Activity Sporadic
METAR KRYY 052247Z 11008G15KT 10SM SCT070 27/10 A3021

More Conditions Fewer Conditions

10-Day Weather Forecast

Almanac

Astronomy

May. 05, 2015 Rise Set
Actual Time
Civil Twilight
Nautical Twilight
Astronomical Twilight
Moon
Length of Visible Light
Length of Day
Tomorrow will be .
, % of the Moon is Illuminated

Today's Extremes

State Highs State Lows

Community

WunderPhotos

Upload Photos

1,819,025 photos uploaded!

WunderBlogs® & News

Nearby

Air Quality

  Air Quality AQ Index Pollutant
Not available.

Snow Depth

Station Depth Elevation

Earthquake Activity

City Distance Mag. Time & Date
Minimum magnitude displayed is 2.5.

Coastal Water Temperatures

Place Temperature

Stations

Nearby Weather Stations

Station Location Temp. Windchill Dew Point Humidity Wind Precip. Elev Updated Type